Skip Navigation Links Skip Navigation Links

Current Weather

Thule Air Base, Thule, Greenland

For information only: do not use for flight planning or navigation.
Latest weather
Observation time Saturday, October 19, 2019 7:56 AM WGST
Local time Saturday, October 19, 2019 8:21 AM WGST
Flight conditions Visual Meteorological Conditions
Winds
Wind direction East (90°)
Wind speed 12 mph
Visibility 6.2 mi.
Sky condition
Ceiling unlimited
Sky clear
Temperature -5°F
Dewpoint -8°F
Altimeter 29.94 in.Hg
Derived measurements
Relative humidity 86%
Wind chill -24°F
Density altitude -4342 ft.
Sea-level pressure 29.91 in.Hg
Remarks
Fully automated report.
System requires maintenance.
Automated weather observing station with precipitation discriminator.
Lightning detection system not operating.
METAR BGTL 190956Z AUTO 09010KT 9999 CLR M21/M22 A2994 RMK AO2 SLP130 T12081225 TSNO $

Settings

Location code

InnerDrive.Weather 4.0.6770.0 Release CLR 4.0.30319.42000
Copyright ©2018 Inner Drive Technology. All rights reserved. Portions Copyright ©1986-2018 David Braverman.

Find weather

Site navigation


Skip Navigation Links

Place info

Page info

PayPal - The safer, easier way to pay online!

Return home.

Copyright ©2019 Inner Drive Technology. Purveyors of fine, hand-crafted computer software. Page printed 2019-10-19T10:21:50 UTC.